Northern Expedition — CFN5364 — position and weather

sailwx.info

Track history (hours):
 
Tides and Currents Weather Stations Pressure Air Temp Water Temp Dewpoint Dewpoint Depression Visibility Wind Speed Wind Dir Waves Ship Positions

Northern Expedition

Last reported at 2017-Jan-15 07:32 UTC. Time now 2017-Jan-19 08:55 UTC.
Position N 52°01' W 127°55'.

Length 151 m; draft 5 m.

Type: Passenger vessel. MMSI: 316014054.

Date/timePositionNaut miles runAvg speedWind from/ knotsBaromVisibWave heightAir tempDewpointWater temp
2017-Jan-15 07:32N 52°01' W 127°55'1414.9
2017-Jan-15 06:34N 51°47' W 127°55'1515.2
2017-Jan-15 05:33N 51°32' W 127°52'1814.8
2017-Jan-15 04:19N 51°14' W 127°52'1215.9
2017-Jan-15 03:32N 51°02' W 127°47'1514.9
2017-Jan-15 02:33N 50°51' W 127°31'8 3.6
2017-Jan-15 00:27N 50°44' W 127°27'0 0.0
2017-Jan-14 19:31N 50°44' W 127°27'2 0.6
2017-Jan-14 16:33N 50°45' W 127°28'1312.7
2017-Jan-14 15:33N 50°55' W 127°40'1615.9
2017-Jan-14 14:33N 51°10' W 127°51'1515.2
2017-Jan-14 13:33N 51°25' W 127°51'1514.9
2017-Jan-14 12:33N 51°39' W 127°55'1413.9
2017-Jan-14 11:33N 51°53' W 127°56'  
2017-Jan-08 07:33N 52°01' W 127°55'1616.1
2017-Jan-08 06:34N 51°45' W 127°55'1616.1
2017-Jan-08 05:34N 51°29' W 127°51'1716.4
2017-Jan-08 04:33N 51°12' W 127°52'1616.1
2017-Jan-08 03:33N 50°57' W 127°44'1515.3
2017-Jan-08 02:33N 50°46' W 127°27'2 0.2
2017-Jan-07 16:23N 50°44' W 127°28'1112.7
2017-Jan-07 15:33N 50°53' W 127°36'1515.4
2017-Jan-07 14:33N 51°06' W 127°50'1716.2
2017-Jan-07 13:32N 51°22' W 127°52'1414.8
2017-Jan-07 12:33N 51°37' W 127°53'1515.3
2017-Jan-07 11:33N 51°52' W 127°56'  
Track history (hours):
 
Tides and Currents Weather Stations Pressure Air Temp Water Temp Dewpoint Dewpoint Depression Visibility Wind Speed Wind Dir Waves Ship Positions

Northern Expedition

Last reported at 2017-Jan-15 07:32 UTC. Time now 2017-Jan-19 08:55 UTC.
Position N 52°01' W 127°55'.

Length 151 m; draft 5 m.

Type: Passenger vessel. MMSI: 316014054.

Date/timePositionNaut miles runAvg speedWind from/ knotsBaromVisibWave heightAir tempDewpointWater temp
2017-Jan-15 07:32N 52°01' W 127°55'1414.9
2017-Jan-15 06:34N 51°47' W 127°55'1515.2
2017-Jan-15 05:33N 51°32' W 127°52'1814.8
2017-Jan-15 04:19N 51°14' W 127°52'1215.9
2017-Jan-15 03:32N 51°02' W 127°47'1514.9
2017-Jan-15 02:33N 50°51' W 127°31'8 3.6
2017-Jan-15 00:27N 50°44' W 127°27'0 0.0
2017-Jan-14 19:31N 50°44' W 127°27'2 0.6
2017-Jan-14 16:33N 50°45' W 127°28'1312.7
2017-Jan-14 15:33N 50°55' W 127°40'1615.9
2017-Jan-14 14:33N 51°10' W 127°51'1515.2
2017-Jan-14 13:33N 51°25' W 127°51'1514.9
2017-Jan-14 12:33N 51°39' W 127°55'1413.9
2017-Jan-14 11:33N 51°53' W 127°56'  
2017-Jan-08 07:33N 52°01' W 127°55'1616.1
2017-Jan-08 06:34N 51°45' W 127°55'1616.1
2017-Jan-08 05:34N 51°29' W 127°51'1716.4
2017-Jan-08 04:33N 51°12' W 127°52'1616.1
2017-Jan-08 03:33N 50°57' W 127°44'1515.3
2017-Jan-08 02:33N 50°46' W 127°27'2 0.2
2017-Jan-07 16:23N 50°44' W 127°28'1112.7
2017-Jan-07 15:33N 50°53' W 127°36'1515.4
2017-Jan-07 14:33N 51°06' W 127°50'1716.2
2017-Jan-07 13:32N 51°22' W 127°52'1414.8
2017-Jan-07 12:33N 51°37' W 127°53'1515.3
2017-Jan-07 11:33N 51°52' W 127°56'  

Dump ship's entire track history